sensor_id;sensor_type;location;lat;lon;timestamp;temperature;humidity
23827;DHT22;12094;50.822;4.376;2024-02-14T00:03:23;9.20;99.90
23827;DHT22;12094;50.822;4.376;2024-02-14T00:05:54;9.20;99.90
23827;DHT22;12094;50.822;4.376;2024-02-14T00:08:25;9.20;99.90
23827;DHT22;12094;50.822;4.376;2024-02-14T00:10:54;9.20;99.90
23827;DHT22;12094;50.822;4.376;2024-02-14T00:13:20;9.20;99.90
23827;DHT22;12094;50.822;4.376;2024-02-14T00:15:51;9.20;99.90
23827;DHT22;12094;50.822;4.376;2024-02-14T00:18:21;9.20;99.90
23827;DHT22;12094;50.822;4.376;2024-02-14T00:21:01;9.20;99.90
23827;DHT22;12094;50.822;4.376;2024-02-14T00:23:28;9.20;99.90
23827;DHT22;12094;50.822;4.376;2024-02-14T00:25:55;9.20;99.90
23827;DHT22;12094;50.822;4.376;2024-02-14T00:28:22;9.30;99.90
23827;DHT22;12094;50.822;4.376;2024-02-14T00:30:50;9.20;99.90
23827;DHT22;12094;50.822;4.376;2024-02-14T00:33:18;9.20;99.90
23827;DHT22;12094;50.822;4.376;2024-02-14T00:35:47;9.20;99.90
23827;DHT22;12094;50.822;4.376;2024-02-14T00:38:14;9.20;99.90
23827;DHT22;12094;50.822;4.376;2024-02-14T00:40:41;9.20;99.90
23827;DHT22;12094;50.822;4.376;2024-02-14T00:43:08;9.30;99.90
23827;DHT22;12094;50.822;4.376;2024-02-14T00:45:35;9.30;99.90
23827;DHT22;12094;50.822;4.376;2024-02-14T00:48:02;9.30;99.90
23827;DHT22;12094;50.822;4.376;2024-02-14T00:50:30;9.40;99.90
23827;DHT22;12094;50.822;4.376;2024-02-14T00:52:57;9.40;99.90
23827;DHT22;12094;50.822;4.376;2024-02-14T00:55:24;9.40;99.90
23827;DHT22;12094;50.822;4.376;2024-02-14T00:57:51;9.40;99.90
23827;DHT22;12094;50.822;4.376;2024-02-14T01:00:18;9.40;99.90
23827;DHT22;12094;50.822;4.376;2024-02-14T01:02:45;9.40;99.90
23827;DHT22;12094;50.822;4.376;2024-02-14T01:05:12;9.50;99.90
23827;DHT22;12094;50.822;4.376;2024-02-14T01:07:39;9.50;99.90
23827;DHT22;12094;50.822;4.376;2024-02-14T01:10:06;9.50;99.90
23827;DHT22;12094;50.822;4.376;2024-02-14T01:12:34;9.40;99.90
23827;DHT22;12094;50.822;4.376;2024-02-14T01:15:01;9.50;99.90
23827;DHT22;12094;50.822;4.376;2024-02-14T01:17:28;9.50;99.90
23827;DHT22;12094;50.822;4.376;2024-02-14T01:19:55;9.40;99.90
23827;DHT22;12094;50.822;4.376;2024-02-14T01:22:22;9.40;99.90
23827;DHT22;12094;50.822;4.376;2024-02-14T01:24:51;9.50;99.90
23827;DHT22;12094;50.822;4.376;2024-02-14T01:27:18;9.50;99.90
23827;DHT22;12094;50.822;4.376;2024-02-14T01:29:45;9.50;99.90
23827;DHT22;12094;50.822;4.376;2024-02-14T01:32:12;9.40;99.90
23827;DHT22;12094;50.822;4.376;2024-02-14T01:34:39;9.40;99.90
23827;DHT22;12094;50.822;4.376;2024-02-14T01:37:07;9.40;99.90
23827;DHT22;12094;50.822;4.376;2024-02-14T01:39:36;9.40;99.90
23827;DHT22;12094;50.822;4.376;2024-02-14T01:42:03;9.40;99.90
23827;DHT22;12094;50.822;4.376;2024-02-14T01:44:34;9.40;99.90
23827;DHT22;12094;50.822;4.376;2024-02-14T01:47:03;9.40;99.90
23827;DHT22;12094;50.822;4.376;2024-02-14T01:49:30;9.50;99.90
23827;DHT22;12094;50.822;4.376;2024-02-14T01:51:58;9.50;99.90
23827;DHT22;12094;50.822;4.376;2024-02-14T01:54:26;9.50;99.90
23827;DHT22;12094;50.822;4.376;2024-02-14T01:56:55;9.50;99.90
23827;DHT22;12094;50.822;4.376;2024-02-14T01:59:23;9.60;99.90
23827;DHT22;12094;50.822;4.376;2024-02-14T02:01:51;9.60;99.90
23827;DHT22;12094;50.822;4.376;2024-02-14T02:04:19;9.50;99.90
23827;DHT22;12094;50.822;4.376;2024-02-14T02:06:47;9.60;99.90
23827;DHT22;12094;50.822;4.376;2024-02-14T02:09:14;9.60;99.90
23827;DHT22;12094;50.822;4.376;2024-02-14T02:11:42;9.50;99.90
23827;DHT22;12094;50.822;4.376;2024-02-14T02:14:09;9.50;99.90
23827;DHT22;12094;50.822;4.376;2024-02-14T02:16:37;9.50;99.90
23827;DHT22;12094;50.822;4.376;2024-02-14T02:19:04;9.50;99.90
23827;DHT22;12094;50.822;4.376;2024-02-14T02:21:36;9.50;99.90
23827;DHT22;12094;50.822;4.376;2024-02-14T02:24:03;9.40;99.90
23827;DHT22;12094;50.822;4.376;2024-02-14T02:26:30;9.40;99.90
23827;DHT22;12094;50.822;4.376;2024-02-14T02:28:59;9.40;99.90
23827;DHT22;12094;50.822;4.376;2024-02-14T02:31:27;9.50;99.90
23827;DHT22;12094;50.822;4.376;2024-02-14T02:33:54;9.50;99.90
23827;DHT22;12094;50.822;4.376;2024-02-14T02:36:21;9.50;99.90
23827;DHT22;12094;50.822;4.376;2024-02-14T02:38:50;9.60;99.90
23827;DHT22;12094;50.822;4.376;2024-02-14T02:41:18;9.60;99.90
23827;DHT22;12094;50.822;4.376;2024-02-14T02:43:45;9.60;99.90
23827;DHT22;12094;50.822;4.376;2024-02-14T02:46:12;9.60;99.90
23827;DHT22;12094;50.822;4.376;2024-02-14T02:48:39;9.60;99.90
23827;DHT22;12094;50.822;4.376;2024-02-14T02:51:06;9.60;99.90
23827;DHT22;12094;50.822;4.376;2024-02-14T02:53:33;9.60;99.90
23827;DHT22;12094;50.822;4.376;2024-02-14T02:56:02;9.70;99.90
23827;DHT22;12094;50.822;4.376;2024-02-14T02:58:29;9.60;99.90
23827;DHT22;12094;50.822;4.376;2024-02-14T03:00:57;9.60;99.90
23827;DHT22;12094;50.822;4.376;2024-02-14T03:03:24;9.60;99.90
23827;DHT22;12094;50.822;4.376;2024-02-14T03:05:53;9.70;99.90
23827;DHT22;12094;50.822;4.376;2024-02-14T03:08:22;9.70;99.90
23827;DHT22;12094;50.822;4.376;2024-02-14T03:10:52;9.70;99.90
23827;DHT22;12094;50.822;4.376;2024-02-14T03:13:20;9.70;99.90
23827;DHT22;12094;50.822;4.376;2024-02-14T03:15:47;9.70;99.90
23827;DHT22;12094;50.822;4.376;2024-02-14T03:18:16;9.70;99.90
23827;DHT22;12094;50.822;4.376;2024-02-14T03:20:43;9.70;99.90
23827;DHT22;12094;50.822;4.376;2024-02-14T03:23:10;9.80;99.90
23827;DHT22;12094;50.822;4.376;2024-02-14T03:25:37;9.80;99.90
23827;DHT22;12094;50.822;4.376;2024-02-14T03:28:06;9.80;99.90
23827;DHT22;12094;50.822;4.376;2024-02-14T03:33:11;9.70;99.90
23827;DHT22;12094;50.822;4.376;2024-02-14T03:35:38;9.70;99.90
23827;DHT22;12094;50.822;4.376;2024-02-14T03:38:05;9.70;99.90
23827;DHT22;12094;50.822;4.376;2024-02-14T03:40:35;9.70;99.90
23827;DHT22;12094;50.822;4.376;2024-02-14T03:43:02;9.70;99.90
23827;DHT22;12094;50.822;4.376;2024-02-14T03:45:29;9.70;99.90
23827;DHT22;12094;50.822;4.376;2024-02-14T03:47:56;9.70;99.90
23827;DHT22;12094;50.822;4.376;2024-02-14T03:50:23;9.70;99.90
23827;DHT22;12094;50.822;4.376;2024-02-14T03:52:50;9.70;99.90
23827;DHT22;12094;50.822;4.376;2024-02-14T03:55:17;9.60;99.90
23827;DHT22;12094;50.822;4.376;2024-02-14T03:57:46;9.70;99.90
23827;DHT22;12094;50.822;4.376;2024-02-14T04:00:14;9.70;99.90
23827;DHT22;12094;50.822;4.376;2024-02-14T04:02:43;9.70;99.90
23827;DHT22;12094;50.822;4.376;2024-02-14T04:05:10;9.70;99.90
23827;DHT22;12094;50.822;4.376;2024-02-14T04:07:37;9.70;99.90
23827;DHT22;12094;50.822;4.376;2024-02-14T04:10:05;9.80;99.90
23827;DHT22;12094;50.822;4.376;2024-02-14T04:12:32;9.80;99.90
23827;DHT22;12094;50.822;4.376;2024-02-14T04:15:01;9.70;99.90
23827;DHT22;12094;50.822;4.376;2024-02-14T04:20:24;9.70;99.90
23827;DHT22;12094;50.822;4.376;2024-02-14T04:22:51;9.70;99.90
23827;DHT22;12094;50.822;4.376;2024-02-14T04:25:18;9.70;99.90
23827;DHT22;12094;50.822;4.376;2024-02-14T04:27:45;9.80;99.90
23827;DHT22;12094;50.822;4.376;2024-02-14T04:30:13;9.80;99.90
23827;DHT22;12094;50.822;4.376;2024-02-14T04:32:44;9.80;99.90
23827;DHT22;12094;50.822;4.376;2024-02-14T04:35:13;9.90;99.90
23827;DHT22;12094;50.822;4.376;2024-02-14T04:37:43;9.90;99.90
23827;DHT22;12094;50.822;4.376;2024-02-14T04:43:05;10.00;99.90
23827;DHT22;12094;50.822;4.376;2024-02-14T04:45:40;10.00;99.90
23827;DHT22;12094;50.822;4.376;2024-02-14T04:48:12;10.00;99.90
23827;DHT22;12094;50.822;4.376;2024-02-14T04:50:41;10.10;99.90
23827;DHT22;12094;50.822;4.376;2024-02-14T04:53:09;10.10;99.90
23827;DHT22;12094;50.822;4.376;2024-02-14T04:55:39;10.10;99.90
23827;DHT22;12094;50.822;4.376;2024-02-14T04:58:12;10.00;99.90
23827;DHT22;12094;50.822;4.376;2024-02-14T05:00:41;10.00;99.90
23827;DHT22;12094;50.822;4.376;2024-02-14T05:05:42;10.10;99.90
23827;DHT22;12094;50.822;4.376;2024-02-14T05:08:09;10.00;99.90
23827;DHT22;12094;50.822;4.376;2024-02-14T05:10:36;10.00;99.90
23827;DHT22;12094;50.822;4.376;2024-02-14T05:13:03;10.00;99.90
23827;DHT22;12094;50.822;4.376;2024-02-14T05:15:30;10.00;99.90
23827;DHT22;12094;50.822;4.376;2024-02-14T05:17:57;10.00;99.90
23827;DHT22;12094;50.822;4.376;2024-02-14T05:20:24;10.00;99.90
23827;DHT22;12094;50.822;4.376;2024-02-14T05:22:52;10.00;99.90
23827;DHT22;12094;50.822;4.376;2024-02-14T05:25:19;10.00;99.90
23827;DHT22;12094;50.822;4.376;2024-02-14T05:27:46;10.00;99.90
23827;DHT22;12094;50.822;4.376;2024-02-14T05:30:14;10.00;99.90
23827;DHT22;12094;50.822;4.376;2024-02-14T05:32:41;10.00;99.90
23827;DHT22;12094;50.822;4.376;2024-02-14T05:35:10;10.00;99.90
23827;DHT22;12094;50.822;4.376;2024-02-14T05:37:37;10.00;99.90
23827;DHT22;12094;50.822;4.376;2024-02-14T05:40:05;10.10;99.90
23827;DHT22;12094;50.822;4.376;2024-02-14T05:42:34;10.00;99.90
23827;DHT22;12094;50.822;4.376;2024-02-14T05:45:01;10.00;99.90
23827;DHT22;12094;50.822;4.376;2024-02-14T05:47:30;10.10;99.90
23827;DHT22;12094;50.822;4.376;2024-02-14T05:49:58;10.10;99.90
23827;DHT22;12094;50.822;4.376;2024-02-14T05:52:26;10.10;99.90
23827;DHT22;12094;50.822;4.376;2024-02-14T05:54:53;10.10;99.90
23827;DHT22;12094;50.822;4.376;2024-02-14T05:57:20;10.10;99.90
23827;DHT22;12094;50.822;4.376;2024-02-14T05:59:47;10.20;99.90
23827;DHT22;12094;50.822;4.376;2024-02-14T06:02:14;10.10;99.90
23827;DHT22;12094;50.822;4.376;2024-02-14T06:04:41;10.10;99.90
23827;DHT22;12094;50.822;4.376;2024-02-14T06:07:09;10.20;99.90
23827;DHT22;12094;50.822;4.376;2024-02-14T06:09:38;10.20;99.90
23827;DHT22;12094;50.822;4.376;2024-02-14T06:12:06;10.20;99.90
23827;DHT22;12094;50.822;4.376;2024-02-14T06:14:33;10.20;99.90
23827;DHT22;12094;50.822;4.376;2024-02-14T06:17:02;10.20;99.90
23827;DHT22;12094;50.822;4.376;2024-02-14T06:19:30;10.20;99.90
23827;DHT22;12094;50.822;4.376;2024-02-14T06:21:58;10.30;99.90
23827;DHT22;12094;50.822;4.376;2024-02-14T06:24:25;10.30;99.90
23827;DHT22;12094;50.822;4.376;2024-02-14T06:26:53;10.20;99.90
23827;DHT22;12094;50.822;4.376;2024-02-14T06:29:23;10.20;99.90
23827;DHT22;12094;50.822;4.376;2024-02-14T06:31:50;10.30;99.90
23827;DHT22;12094;50.822;4.376;2024-02-14T06:34:17;10.30;99.90
23827;DHT22;12094;50.822;4.376;2024-02-14T06:36:47;10.30;99.90
23827;DHT22;12094;50.822;4.376;2024-02-14T06:39:15;10.30;99.90
23827;DHT22;12094;50.822;4.376;2024-02-14T06:41:43;10.40;99.90
23827;DHT22;12094;50.822;4.376;2024-02-14T06:44:12;10.40;99.90
23827;DHT22;12094;50.822;4.376;2024-02-14T06:46:39;10.40;99.90
23827;DHT22;12094;50.822;4.376;2024-02-14T06:49:07;10.40;99.90
23827;DHT22;12094;50.822;4.376;2024-02-14T06:51:34;10.50;99.90
23827;DHT22;12094;50.822;4.376;2024-02-14T06:54:01;10.40;99.90
23827;DHT22;12094;50.822;4.376;2024-02-14T06:56:29;10.40;99.90
23827;DHT22;12094;50.822;4.376;2024-02-14T06:58:57;10.40;99.90
23827;DHT22;12094;50.822;4.376;2024-02-14T07:01:27;10.40;99.90
23827;DHT22;12094;50.822;4.376;2024-02-14T07:03:56;10.40;99.90
23827;DHT22;12094;50.822;4.376;2024-02-14T07:06:23;10.50;99.90
23827;DHT22;12094;50.822;4.376;2024-02-14T07:08:50;10.50;99.90
23827;DHT22;12094;50.822;4.376;2024-02-14T07:11:17;10.50;99.90
23827;DHT22;12094;50.822;4.376;2024-02-14T07:13:44;10.50;99.90
23827;DHT22;12094;50.822;4.376;2024-02-14T07:16:11;10.50;99.90
23827;DHT22;12094;50.822;4.376;2024-02-14T07:18:40;10.50;99.90
23827;DHT22;12094;50.822;4.376;2024-02-14T07:21:07;10.50;99.90
23827;DHT22;12094;50.822;4.376;2024-02-14T07:23:34;10.50;99.90
23827;DHT22;12094;50.822;4.376;2024-02-14T07:26:01;10.50;99.90
23827;DHT22;12094;50.822;4.376;2024-02-14T07:28:29;10.50;99.90
23827;DHT22;12094;50.822;4.376;2024-02-14T07:30:56;10.50;99.90
23827;DHT22;12094;50.822;4.376;2024-02-14T07:33:24;10.50;99.90
23827;DHT22;12094;50.822;4.376;2024-02-14T07:35:51;10.50;99.90
23827;DHT22;12094;50.822;4.376;2024-02-14T07:38:19;10.50;99.90
23827;DHT22;12094;50.822;4.376;2024-02-14T07:40:47;10.50;99.90
23827;DHT22;12094;50.822;4.376;2024-02-14T07:43:17;10.50;99.90
23827;DHT22;12094;50.822;4.376;2024-02-14T07:45:44;10.60;99.90
23827;DHT22;12094;50.822;4.376;2024-02-14T07:48:14;10.50;99.90
23827;DHT22;12094;50.822;4.376;2024-02-14T07:50:58;10.50;99.90
23827;DHT22;12094;50.822;4.376;2024-02-14T07:53:26;10.60;99.90
23827;DHT22;12094;50.822;4.376;2024-02-14T07:55:53;10.60;99.90
23827;DHT22;12094;50.822;4.376;2024-02-14T07:58:22;10.70;99.90
23827;DHT22;12094;50.822;4.376;2024-02-14T08:00:49;10.70;99.90
23827;DHT22;12094;50.822;4.376;2024-02-14T08:03:16;10.70;99.90
23827;DHT22;12094;50.822;4.376;2024-02-14T08:05:45;10.70;99.90
23827;DHT22;12094;50.822;4.376;2024-02-14T08:08:12;10.70;99.90
23827;DHT22;12094;50.822;4.376;2024-02-14T08:10:40;10.70;99.90
23827;DHT22;12094;50.822;4.376;2024-02-14T08:13:07;10.80;99.90
23827;DHT22;12094;50.822;4.376;2024-02-14T08:15:34;10.70;99.90
23827;DHT22;12094;50.822;4.376;2024-02-14T08:18:06;10.70;99.90
23827;DHT22;12094;50.822;4.376;2024-02-14T08:20:38;10.70;99.90
23827;DHT22;12094;50.822;4.376;2024-02-14T08:23:05;10.70;99.90
23827;DHT22;12094;50.822;4.376;2024-02-14T08:25:32;10.70;99.90
23827;DHT22;12094;50.822;4.376;2024-02-14T08:28:00;10.70;99.90
23827;DHT22;12094;50.822;4.376;2024-02-14T08:30:28;10.70;99.90
23827;DHT22;12094;50.822;4.376;2024-02-14T08:32:56;10.80;99.90
23827;DHT22;12094;50.822;4.376;2024-02-14T08:35:28;10.70;99.90
23827;DHT22;12094;50.822;4.376;2024-02-14T08:38:24;10.70;99.90
23827;DHT22;12094;50.822;4.376;2024-02-14T08:40:55;10.80;99.90
23827;DHT22;12094;50.822;4.376;2024-02-14T08:43:23;10.80;99.90
23827;DHT22;12094;50.822;4.376;2024-02-14T08:45:55;10.90;99.90
23827;DHT22;12094;50.822;4.376;2024-02-14T08:48:22;10.80;99.90
23827;DHT22;12094;50.822;4.376;2024-02-14T08:50:49;10.90;99.90
23827;DHT22;12094;50.822;4.376;2024-02-14T08:53:16;10.90;99.90
23827;DHT22;12094;50.822;4.376;2024-02-14T08:55:47;10.90;99.90
23827;DHT22;12094;50.822;4.376;2024-02-14T08:58:20;10.90;99.90
23827;DHT22;12094;50.822;4.376;2024-02-14T09:03:43;10.90;99.90
23827;DHT22;12094;50.822;4.376;2024-02-14T09:06:15;11.00;99.90
23827;DHT22;12094;50.822;4.376;2024-02-14T09:08:43;11.00;99.90
23827;DHT22;12094;50.822;4.376;2024-02-14T09:11:10;11.10;99.90
23827;DHT22;12094;50.822;4.376;2024-02-14T09:13:39;11.10;99.90
23827;DHT22;12094;50.822;4.376;2024-02-14T09:16:08;11.10;99.90
23827;DHT22;12094;50.822;4.376;2024-02-14T09:18:37;11.10;99.90
23827;DHT22;12094;50.822;4.376;2024-02-14T09:21:05;11.10;99.90
23827;DHT22;12094;50.822;4.376;2024-02-14T09:23:34;11.10;99.90
23827;DHT22;12094;50.822;4.376;2024-02-14T09:26:02;11.10;99.90
23827;DHT22;12094;50.822;4.376;2024-02-14T09:28:29;11.20;99.90
23827;DHT22;12094;50.822;4.376;2024-02-14T09:30:56;11.20;99.90
23827;DHT22;12094;50.822;4.376;2024-02-14T09:33:23;11.10;99.90
23827;DHT22;12094;50.822;4.376;2024-02-14T09:35:52;11.10;99.90
23827;DHT22;12094;50.822;4.376;2024-02-14T09:38:21;11.10;99.90
23827;DHT22;12094;50.822;4.376;2024-02-14T09:40:52;11.20;99.90
23827;DHT22;12094;50.822;4.376;2024-02-14T09:43:34;11.20;99.90
23827;DHT22;12094;50.822;4.376;2024-02-14T09:46:04;11.10;99.90
23827;DHT22;12094;50.822;4.376;2024-02-14T09:48:32;11.20;99.90
23827;DHT22;12094;50.822;4.376;2024-02-14T09:51:00;11.20;99.90
23827;DHT22;12094;50.822;4.376;2024-02-14T09:53:29;11.20;99.90
23827;DHT22;12094;50.822;4.376;2024-02-14T09:55:59;11.20;99.90
23827;DHT22;12094;50.822;4.376;2024-02-14T09:58:26;11.20;99.90
23827;DHT22;12094;50.822;4.376;2024-02-14T10:00:54;11.20;99.90
23827;DHT22;12094;50.822;4.376;2024-02-14T10:03:22;11.20;99.90
23827;DHT22;12094;50.822;4.376;2024-02-14T10:05:50;11.20;99.90
23827;DHT22;12094;50.822;4.376;2024-02-14T10:08:22;11.20;99.90
23827;DHT22;12094;50.822;4.376;2024-02-14T10:10:49;11.30;99.90
23827;DHT22;12094;50.822;4.376;2024-02-14T10:13:19;11.30;99.90
23827;DHT22;12094;50.822;4.376;2024-02-14T10:15:47;11.30;99.90
23827;DHT22;12094;50.822;4.376;2024-02-14T10:18:15;11.30;99.90
23827;DHT22;12094;50.822;4.376;2024-02-14T10:20:56;11.30;99.90
23827;DHT22;12094;50.822;4.376;2024-02-14T10:23:24;11.30;99.90
23827;DHT22;12094;50.822;4.376;2024-02-14T10:25:54;11.30;99.90
23827;DHT22;12094;50.822;4.376;2024-02-14T10:28:23;11.40;99.90
23827;DHT22;12094;50.822;4.376;2024-02-14T10:31:02;11.40;99.90
23827;DHT22;12094;50.822;4.376;2024-02-14T10:33:31;11.40;99.90
23827;DHT22;12094;50.822;4.376;2024-02-14T10:35:58;11.40;99.90
23827;DHT22;12094;50.822;4.376;2024-02-14T10:38:31;11.40;99.90
23827;DHT22;12094;50.822;4.376;2024-02-14T10:41:03;11.50;99.90
23827;DHT22;12094;50.822;4.376;2024-02-14T10:43:31;11.50;99.90
23827;DHT22;12094;50.822;4.376;2024-02-14T10:46:00;11.50;99.90
23827;DHT22;12094;50.822;4.376;2024-02-14T10:48:28;11.50;99.90
23827;DHT22;12094;50.822;4.376;2024-02-14T10:51:02;11.50;99.90
23827;DHT22;12094;50.822;4.376;2024-02-14T10:53:33;11.40;99.90
23827;DHT22;12094;50.822;4.376;2024-02-14T10:56:03;11.50;99.90
23827;DHT22;12094;50.822;4.376;2024-02-14T10:58:30;11.40;99.90
23827;DHT22;12094;50.822;4.376;2024-02-14T11:01:01;11.40;99.90
23827;DHT22;12094;50.822;4.376;2024-02-14T11:03:32;11.40;99.90
23827;DHT22;12094;50.822;4.376;2024-02-14T11:06:01;11.50;99.90
23827;DHT22;12094;50.822;4.376;2024-02-14T11:08:33;11.50;99.90
23827;DHT22;12094;50.822;4.376;2024-02-14T11:11:08;11.50;99.90
23827;DHT22;12094;50.822;4.376;2024-02-14T11:13:40;11.60;99.90
23827;DHT22;12094;50.822;4.376;2024-02-14T11:16:10;11.50;99.90
23827;DHT22;12094;50.822;4.376;2024-02-14T11:18:37;11.60;99.90
23827;DHT22;12094;50.822;4.376;2024-02-14T11:21:15;11.50;99.90
23827;DHT22;12094;50.822;4.376;2024-02-14T11:23:52;11.60;99.90
23827;DHT22;12094;50.822;4.376;2024-02-14T11:26:21;11.70;99.90
23827;DHT22;12094;50.822;4.376;2024-02-14T11:28:59;11.60;99.90
23827;DHT22;12094;50.822;4.376;2024-02-14T11:31:30;11.70;99.90
23827;DHT22;12094;50.822;4.376;2024-02-14T11:34:02;11.60;99.90
23827;DHT22;12094;50.822;4.376;2024-02-14T11:36:32;11.70;99.90
23827;DHT22;12094;50.822;4.376;2024-02-14T11:39:03;11.70;99.90
23827;DHT22;12094;50.822;4.376;2024-02-14T11:41:32;11.70;99.90
23827;DHT22;12094;50.822;4.376;2024-02-14T11:44:03;11.70;99.90
23827;DHT22;12094;50.822;4.376;2024-02-14T11:46:31;11.70;99.90
23827;DHT22;12094;50.822;4.376;2024-02-14T11:49:08;11.70;99.90
23827;DHT22;12094;50.822;4.376;2024-02-14T11:51:49;11.80;99.90
23827;DHT22;12094;50.822;4.376;2024-02-14T11:54:26;11.90;99.90
23827;DHT22;12094;50.822;4.376;2024-02-14T11:56:59;11.90;99.90
23827;DHT22;12094;50.822;4.376;2024-02-14T11:59:30;11.90;99.90
23827;DHT22;12094;50.822;4.376;2024-02-14T12:02:00;11.90;99.90
23827;DHT22;12094;50.822;4.376;2024-02-14T12:07:31;12.00;99.90
23827;DHT22;12094;50.822;4.376;2024-02-14T12:09:58;12.00;99.90
23827;DHT22;12094;50.822;4.376;2024-02-14T12:12:25;11.90;99.90
23827;DHT22;12094;50.822;4.376;2024-02-14T12:14:56;12.00;99.90
23827;DHT22;12094;50.822;4.376;2024-02-14T12:17:23;12.10;99.90
23827;DHT22;12094;50.822;4.376;2024-02-14T12:19:51;12.10;99.90
23827;DHT22;12094;50.822;4.376;2024-02-14T12:22:20;12.10;99.90
23827;DHT22;12094;50.822;4.376;2024-02-14T12:24:48;12.10;99.90
23827;DHT22;12094;50.822;4.376;2024-02-14T12:27:18;12.10;99.90
23827;DHT22;12094;50.822;4.376;2024-02-14T12:29:48;12.10;99.90
23827;DHT22;12094;50.822;4.376;2024-02-14T12:32:16;12.20;99.90
23827;DHT22;12094;50.822;4.376;2024-02-14T12:34:47;12.20;99.90
23827;DHT22;12094;50.822;4.376;2024-02-14T12:37:14;12.20;99.90
23827;DHT22;12094;50.822;4.376;2024-02-14T12:39:42;12.20;99.90
23827;DHT22;12094;50.822;4.376;2024-02-14T12:42:09;12.30;99.90
23827;DHT22;12094;50.822;4.376;2024-02-14T12:44:36;12.30;99.90
23827;DHT22;12094;50.822;4.376;2024-02-14T12:47:11;12.30;99.90
23827;DHT22;12094;50.822;4.376;2024-02-14T12:49:42;12.30;99.90
23827;DHT22;12094;50.822;4.376;2024-02-14T12:52:10;12.40;99.90
23827;DHT22;12094;50.822;4.376;2024-02-14T12:54:43;12.40;99.90
23827;DHT22;12094;50.822;4.376;2024-02-14T12:57:18;12.40;99.90
23827;DHT22;12094;50.822;4.376;2024-02-14T12:59:46;12.40;99.90
23827;DHT22;12094;50.822;4.376;2024-02-14T13:04:44;12.40;99.90
23827;DHT22;12094;50.822;4.376;2024-02-14T13:07:12;12.40;99.90
23827;DHT22;12094;50.822;4.376;2024-02-14T13:09:39;12.40;99.90
23827;DHT22;12094;50.822;4.376;2024-02-14T13:12:12;12.40;99.90
23827;DHT22;12094;50.822;4.376;2024-02-14T13:14:40;12.40;99.90
23827;DHT22;12094;50.822;4.376;2024-02-14T13:19:50;12.30;99.90
23827;DHT22;12094;50.822;4.376;2024-02-14T13:22:20;12.30;99.90
23827;DHT22;12094;50.822;4.376;2024-02-14T13:24:47;12.30;99.90
23827;DHT22;12094;50.822;4.376;2024-02-14T13:27:14;12.20;99.90
23827;DHT22;12094;50.822;4.376;2024-02-14T13:29:42;12.20;99.90
23827;DHT22;12094;50.822;4.376;2024-02-14T13:32:10;12.30;99.90
23827;DHT22;12094;50.822;4.376;2024-02-14T13:34:38;12.20;99.90
23827;DHT22;12094;50.822;4.376;2024-02-14T13:37:05;12.20;99.90
23827;DHT22;12094;50.822;4.376;2024-02-14T13:39:33;12.30;99.90
23827;DHT22;12094;50.822;4.376;2024-02-14T13:42:00;12.30;99.90
23827;DHT22;12094;50.822;4.376;2024-02-14T13:44:29;12.30;99.90
23827;DHT22;12094;50.822;4.376;2024-02-14T13:46:56;12.30;99.90
23827;DHT22;12094;50.822;4.376;2024-02-14T13:49:25;12.30;99.90
23827;DHT22;12094;50.822;4.376;2024-02-14T13:51:53;12.20;99.90
23827;DHT22;12094;50.822;4.376;2024-02-14T13:54:20;12.30;99.90
23827;DHT22;12094;50.822;4.376;2024-02-14T13:56:48;12.30;99.90
23827;DHT22;12094;50.822;4.376;2024-02-14T13:59:16;12.30;99.90
23827;DHT22;12094;50.822;4.376;2024-02-14T14:01:43;12.30;99.90
23827;DHT22;12094;50.822;4.376;2024-02-14T14:06:45;12.30;99.90
23827;DHT22;12094;50.822;4.376;2024-02-14T14:09:14;12.30;99.90
23827;DHT22;12094;50.822;4.376;2024-02-14T14:11:42;12.30;99.90
23827;DHT22;12094;50.822;4.376;2024-02-14T14:14:09;12.40;99.90
23827;DHT22;12094;50.822;4.376;2024-02-14T14:16:43;12.40;99.90
23827;DHT22;12094;50.822;4.376;2024-02-14T14:19:12;12.40;99.90
23827;DHT22;12094;50.822;4.376;2024-02-14T14:21:39;12.40;99.90
23827;DHT22;12094;50.822;4.376;2024-02-14T14:24:06;12.40;99.90
23827;DHT22;12094;50.822;4.376;2024-02-14T14:26:35;12.50;99.90
23827;DHT22;12094;50.822;4.376;2024-02-14T14:29:03;12.50;99.90
23827;DHT22;12094;50.822;4.376;2024-02-14T14:31:31;12.50;99.90
23827;DHT22;12094;50.822;4.376;2024-02-14T14:34:00;12.50;99.90
23827;DHT22;12094;50.822;4.376;2024-02-14T14:36:29;12.60;99.90
23827;DHT22;12094;50.822;4.376;2024-02-14T14:38:57;12.60;99.90
23827;DHT22;12094;50.822;4.376;2024-02-14T14:41:27;12.60;99.90
23827;DHT22;12094;50.822;4.376;2024-02-14T14:43:58;12.60;99.90
23827;DHT22;12094;50.822;4.376;2024-02-14T14:46:25;12.60;99.90
23827;DHT22;12094;50.822;4.376;2024-02-14T14:48:54;12.60;99.90
23827;DHT22;12094;50.822;4.376;2024-02-14T14:53:52;12.70;99.90
23827;DHT22;12094;50.822;4.376;2024-02-14T14:56:19;12.70;99.90
23827;DHT22;12094;50.822;4.376;2024-02-14T14:58:46;12.60;99.90
23827;DHT22;12094;50.822;4.376;2024-02-14T15:01:14;12.70;99.90
23827;DHT22;12094;50.822;4.376;2024-02-14T15:03:42;12.70;99.90
23827;DHT22;12094;50.822;4.376;2024-02-14T15:06:09;12.70;99.90
23827;DHT22;12094;50.822;4.376;2024-02-14T15:08:39;12.70;99.90
23827;DHT22;12094;50.822;4.376;2024-02-14T15:11:08;12.70;99.90
23827;DHT22;12094;50.822;4.376;2024-02-14T15:13:36;12.80;99.90
23827;DHT22;12094;50.822;4.376;2024-02-14T15:16:03;12.80;99.90
23827;DHT22;12094;50.822;4.376;2024-02-14T15:18:36;12.70;99.90
23827;DHT22;12094;50.822;4.376;2024-02-14T15:21:03;12.80;99.90
23827;DHT22;12094;50.822;4.376;2024-02-14T15:23:32;12.80;99.90
23827;DHT22;12094;50.822;4.376;2024-02-14T15:26:01;12.80;99.90
23827;DHT22;12094;50.822;4.376;2024-02-14T15:28:34;12.80;99.90
23827;DHT22;12094;50.822;4.376;2024-02-14T15:31:07;12.80;99.90
23827;DHT22;12094;50.822;4.376;2024-02-14T15:33:53;12.70;99.90
23827;DHT22;12094;50.822;4.376;2024-02-14T15:36:24;12.70;99.90
23827;DHT22;12094;50.822;4.376;2024-02-14T15:38:52;12.70;99.90
23827;DHT22;12094;50.822;4.376;2024-02-14T15:41:21;12.70;99.90
23827;DHT22;12094;50.822;4.376;2024-02-14T15:43:49;12.70;99.90
23827;DHT22;12094;50.822;4.376;2024-02-14T15:46:25;12.80;99.90
23827;DHT22;12094;50.822;4.376;2024-02-14T15:48:55;12.80;99.90
23827;DHT22;12094;50.822;4.376;2024-02-14T15:51:30;12.80;99.90
23827;DHT22;12094;50.822;4.376;2024-02-14T15:54:01;12.80;99.90
23827;DHT22;12094;50.822;4.376;2024-02-14T15:56:29;12.80;99.90
23827;DHT22;12094;50.822;4.376;2024-02-14T15:59:10;12.80;99.90
23827;DHT22;12094;50.822;4.376;2024-02-14T16:01:41;12.80;99.90
23827;DHT22;12094;50.822;4.376;2024-02-14T16:04:15;12.80;99.90
23827;DHT22;12094;50.822;4.376;2024-02-14T16:06:44;12.80;99.90
23827;DHT22;12094;50.822;4.376;2024-02-14T16:09:11;12.80;99.90
23827;DHT22;12094;50.822;4.376;2024-02-14T16:11:41;12.80;99.90
23827;DHT22;12094;50.822;4.376;2024-02-14T16:14:10;12.90;99.90